X  CloseMetar Aviation Weather Data     YMAV Avalon Airport

Temperature

13°C Temperature

12°C Dewpoint

94% Humidity



Wind

32 KM/H

20 MPH

 9 M/S

17 KTS



120°
East South
East
Current Conditions

Mostly Scattered Clouds Mostly Scattered Clouds
Pressure 1020.92 (hPa) - 30.15 (in)
Visibility 6.2 (mi) - 10 (km)
Airport
Airport-code YMAV

Location Avalon Airport 14 (km)

Metar:
YMAV 271200Z AUTO 12017KT 9999 // SCT020 SCT095 BKN125 13/12 Q1021

Time: 27-10-2020 23:00